sensor_id;sensor_type;location;lat;lon;timestamp;P1;durP1;ratioP1;P2;durP2;ratioP2
56319;SDS011;42226;42.382;23.748;2023-04-10T00:00:27;5.32;;;4.93;;
56319;SDS011;42226;42.382;23.748;2023-04-10T00:02:57;5.55;;;5.05;;
56319;SDS011;42226;42.382;23.748;2023-04-10T00:05:26;5.93;;;5.43;;
56319;SDS011;42226;42.382;23.748;2023-04-10T00:07:53;5.85;;;5.35;;
56319;SDS011;42226;42.382;23.748;2023-04-10T00:10:20;5.80;;;5.20;;
56319;SDS011;42226;42.382;23.748;2023-04-10T00:12:47;6.00;;;5.53;;
56319;SDS011;42226;42.382;23.748;2023-04-10T00:15:15;5.90;;;5.40;;
56319;SDS011;42226;42.382;23.748;2023-04-10T00:17:42;6.00;;;5.50;;
56319;SDS011;42226;42.382;23.748;2023-04-10T00:20:08;6.28;;;5.68;;
56319;SDS011;42226;42.382;23.748;2023-04-10T00:22:36;5.93;;;5.43;;
56319;SDS011;42226;42.382;23.748;2023-04-10T00:25:02;6.35;;;5.75;;
56319;SDS011;42226;42.382;23.748;2023-04-10T00:27:30;6.07;;;5.57;;
56319;SDS011;42226;42.382;23.748;2023-04-10T00:29:57;6.85;;;6.25;;
56319;SDS011;42226;42.382;23.748;2023-04-10T00:32:24;6.15;;;5.65;;
56319;SDS011;42226;42.382;23.748;2023-04-10T00:34:51;6.35;;;5.75;;
56319;SDS011;42226;42.382;23.748;2023-04-10T00:37:17;6.50;;;5.90;;
56319;SDS011;42226;42.382;23.748;2023-04-10T00:39:44;6.90;;;6.32;;
56319;SDS011;42226;42.382;23.748;2023-04-10T00:42:11;6.43;;;5.90;;
56319;SDS011;42226;42.382;23.748;2023-04-10T00:44:38;5.63;;;5.22;;
56319;SDS011;42226;42.382;23.748;2023-04-10T00:47:06;6.32;;;5.82;;
56319;SDS011;42226;42.382;23.748;2023-04-10T00:49:33;6.57;;;6.07;;
56319;SDS011;42226;42.382;23.748;2023-04-10T00:52:00;6.00;;;5.50;;
56319;SDS011;42226;42.382;23.748;2023-04-10T00:54:27;6.15;;;5.65;;
56319;SDS011;42226;42.382;23.748;2023-04-10T00:56:54;6.57;;;6.00;;
56319;SDS011;42226;42.382;23.748;2023-04-10T00:59:22;6.18;;;5.65;;
56319;SDS011;42226;42.382;23.748;2023-04-10T01:01:49;6.57;;;5.97;;
56319;SDS011;42226;42.382;23.748;2023-04-10T01:04:16;5.35;;;4.95;;
56319;SDS011;42226;42.382;23.748;2023-04-10T01:15:07;6.65;;;6.15;;
56319;SDS011;42226;42.382;23.748;2023-04-10T01:17:45;5.20;;;4.70;;
56319;SDS011;42226;42.382;23.748;2023-04-10T01:20:27;6.15;;;5.65;;
56319;SDS011;42226;42.382;23.748;2023-04-10T01:26:07;6.03;;;5.53;;
56319;SDS011;42226;42.382;23.748;2023-04-10T01:34:07;5.95;;;5.45;;
56319;SDS011;42226;42.382;23.748;2023-04-10T01:37:00;6.43;;;5.82;;
56319;SDS011;42226;42.382;23.748;2023-04-10T01:39:30;6.30;;;5.80;;
56319;SDS011;42226;42.382;23.748;2023-04-10T01:42:04;6.70;;;6.18;;
56319;SDS011;42226;42.382;23.748;2023-04-10T01:44:33;6.15;;;5.65;;
56319;SDS011;42226;42.382;23.748;2023-04-10T01:47:05;6.93;;;6.32;;
56319;SDS011;42226;42.382;23.748;2023-04-10T01:49:33;6.63;;;6.03;;
56319;SDS011;42226;42.382;23.748;2023-04-10T01:52:01;6.40;;;5.80;;
56319;SDS011;42226;42.382;23.748;2023-04-10T01:54:30;6.03;;;5.53;;
56319;SDS011;42226;42.382;23.748;2023-04-10T01:56:58;6.50;;;5.90;;
56319;SDS011;42226;42.382;23.748;2023-04-10T01:59:28;5.80;;;5.40;;
56319;SDS011;42226;42.382;23.748;2023-04-10T02:01:59;6.10;;;5.60;;
56319;SDS011;42226;42.382;23.748;2023-04-10T02:04:26;5.85;;;5.25;;
56319;SDS011;42226;42.382;23.748;2023-04-10T02:07:01;6.28;;;5.78;;
56319;SDS011;42226;42.382;23.748;2023-04-10T02:09:52;5.57;;;5.07;;
56319;SDS011;42226;42.382;23.748;2023-04-10T02:12:31;6.68;;;6.07;;
56319;SDS011;42226;42.382;23.748;2023-04-10T02:15:08;5.90;;;5.40;;
56319;SDS011;42226;42.382;23.748;2023-04-10T02:17:36;6.10;;;5.60;;
56319;SDS011;42226;42.382;23.748;2023-04-10T02:20:05;5.75;;;5.25;;
56319;SDS011;42226;42.382;23.748;2023-04-10T02:22:33;5.82;;;5.32;;
56319;SDS011;42226;42.382;23.748;2023-04-10T02:25:01;5.80;;;5.30;;
56319;SDS011;42226;42.382;23.748;2023-04-10T02:27:31;5.82;;;5.35;;
56319;SDS011;42226;42.382;23.748;2023-04-10T02:30:01;6.10;;;5.60;;
56319;SDS011;42226;42.382;23.748;2023-04-10T02:32:29;5.40;;;4.90;;
56319;SDS011;42226;42.382;23.748;2023-04-10T02:34:57;5.90;;;5.40;;
56319;SDS011;42226;42.382;23.748;2023-04-10T02:37:24;5.88;;;5.38;;
56319;SDS011;42226;42.382;23.748;2023-04-10T02:39:51;6.10;;;5.60;;
56319;SDS011;42226;42.382;23.748;2023-04-10T02:42:21;5.80;;;5.30;;
56319;SDS011;42226;42.382;23.748;2023-04-10T02:44:48;6.82;;;6.22;;
56319;SDS011;42226;42.382;23.748;2023-04-10T02:47:14;6.15;;;5.65;;
56319;SDS011;42226;42.382;23.748;2023-04-10T02:49:42;6.90;;;6.30;;
56319;SDS011;42226;42.382;23.748;2023-04-10T02:52:09;5.95;;;5.45;;
56319;SDS011;42226;42.382;23.748;2023-04-10T02:54:36;5.93;;;5.43;;
56319;SDS011;42226;42.382;23.748;2023-04-10T02:57:04;5.68;;;5.18;;
56319;SDS011;42226;42.382;23.748;2023-04-10T02:59:31;5.40;;;5.00;;
56319;SDS011;42226;42.382;23.748;2023-04-10T03:01:57;6.28;;;5.72;;
56319;SDS011;42226;42.382;23.748;2023-04-10T03:04:24;6.70;;;6.10;;
56319;SDS011;42226;42.382;23.748;2023-04-10T03:06:52;4.85;;;4.45;;
56319;SDS011;42226;42.382;23.748;2023-04-10T03:09:20;5.93;;;5.43;;
56319;SDS011;42226;42.382;23.748;2023-04-10T03:11:46;6.60;;;6.00;;
56319;SDS011;42226;42.382;23.748;2023-04-10T03:14:13;6.50;;;5.90;;
56319;SDS011;42226;42.382;23.748;2023-04-10T03:16:40;6.70;;;6.10;;
56319;SDS011;42226;42.382;23.748;2023-04-10T03:19:06;7.03;;;6.32;;
56319;SDS011;42226;42.382;23.748;2023-04-10T03:21:33;6.70;;;6.10;;
56319;SDS011;42226;42.382;23.748;2023-04-10T03:24:00;6.60;;;6.00;;
56319;SDS011;42226;42.382;23.748;2023-04-10T03:26:27;6.80;;;6.20;;
56319;SDS011;42226;42.382;23.748;2023-04-10T03:28:54;6.30;;;5.80;;
56319;SDS011;42226;42.382;23.748;2023-04-10T03:31:21;6.88;;;6.20;;
56319;SDS011;42226;42.382;23.748;2023-04-10T03:33:47;6.55;;;5.95;;
56319;SDS011;42226;42.382;23.748;2023-04-10T03:36:14;7.10;;;6.40;;
56319;SDS011;42226;42.382;23.748;2023-04-10T03:38:41;6.40;;;5.90;;
56319;SDS011;42226;42.382;23.748;2023-04-10T03:41:08;7.18;;;6.50;;
56319;SDS011;42226;42.382;23.748;2023-04-10T03:43:35;7.35;;;6.75;;
56319;SDS011;42226;42.382;23.748;2023-04-10T03:46:01;7.72;;;6.93;;
56319;SDS011;42226;42.382;23.748;2023-04-10T03:48:28;11.13;;;9.30;;
56319;SDS011;42226;42.382;23.748;2023-04-10T03:50:56;13.55;;;11.65;;
56319;SDS011;42226;42.382;23.748;2023-04-10T03:53:24;14.93;;;12.23;;
56319;SDS011;42226;42.382;23.748;2023-04-10T03:55:51;15.25;;;12.45;;
56319;SDS011;42226;42.382;23.748;2023-04-10T03:58:17;9.65;;;8.60;;
56319;SDS011;42226;42.382;23.748;2023-04-10T04:00:45;13.90;;;11.18;;
56319;SDS011;42226;42.382;23.748;2023-04-10T04:03:11;12.35;;;10.40;;
56319;SDS011;42226;42.382;23.748;2023-04-10T04:05:38;8.95;;;8.05;;
56319;SDS011;42226;42.382;23.748;2023-04-10T04:08:05;17.58;;;14.18;;
56319;SDS011;42226;42.382;23.748;2023-04-10T04:10:32;17.65;;;15.02;;
56319;SDS011;42226;42.382;23.748;2023-04-10T04:12:59;16.10;;;13.45;;
56319;SDS011;42226;42.382;23.748;2023-04-10T04:15:26;10.15;;;9.07;;
56319;SDS011;42226;42.382;23.748;2023-04-10T04:17:52;13.90;;;11.40;;
56319;SDS011;42226;42.382;23.748;2023-04-10T04:20:21;17.40;;;13.80;;
56319;SDS011;42226;42.382;23.748;2023-04-10T04:22:48;15.55;;;12.90;;
56319;SDS011;42226;42.382;23.748;2023-04-10T04:25:14;16.42;;;12.63;;
56319;SDS011;42226;42.382;23.748;2023-04-10T04:27:43;15.57;;;11.18;;
56319;SDS011;42226;42.382;23.748;2023-04-10T04:30:10;13.65;;;11.88;;
56319;SDS011;42226;42.382;23.748;2023-04-10T04:32:37;9.63;;;8.27;;
56319;SDS011;42226;42.382;23.748;2023-04-10T04:35:04;8.10;;;7.30;;
56319;SDS011;42226;42.382;23.748;2023-04-10T04:37:31;7.18;;;6.50;;
56319;SDS011;42226;42.382;23.748;2023-04-10T04:39:58;6.68;;;6.07;;
56319;SDS011;42226;42.382;23.748;2023-04-10T04:42:26;7.85;;;7.15;;
56319;SDS011;42226;42.382;23.748;2023-04-10T04:44:53;7.35;;;6.65;;
56319;SDS011;42226;42.382;23.748;2023-04-10T04:47:20;7.25;;;6.65;;
56319;SDS011;42226;42.382;23.748;2023-04-10T04:49:48;9.00;;;8.10;;
56319;SDS011;42226;42.382;23.748;2023-04-10T04:52:15;8.13;;;7.30;;
56319;SDS011;42226;42.382;23.748;2023-04-10T04:54:42;7.20;;;6.60;;
56319;SDS011;42226;42.382;23.748;2023-04-10T04:57:08;7.15;;;6.55;;
56319;SDS011;42226;42.382;23.748;2023-04-10T04:59:35;6.00;;;5.50;;
56319;SDS011;42226;42.382;23.748;2023-04-10T05:02:02;6.65;;;6.05;;
56319;SDS011;42226;42.382;23.748;2023-04-10T05:04:29;6.68;;;6.07;;
56319;SDS011;42226;42.382;23.748;2023-04-10T05:06:56;6.85;;;6.25;;
56319;SDS011;42226;42.382;23.748;2023-04-10T05:09:23;6.10;;;5.60;;
56319;SDS011;42226;42.382;23.748;2023-04-10T05:11:49;6.60;;;6.00;;
56319;SDS011;42226;42.382;23.748;2023-04-10T05:14:19;6.13;;;5.63;;
56319;SDS011;42226;42.382;23.748;2023-04-10T05:16:46;7.07;;;6.47;;
56319;SDS011;42226;42.382;23.748;2023-04-10T05:19:13;5.88;;;5.38;;
56319;SDS011;42226;42.382;23.748;2023-04-10T05:21:40;6.00;;;5.50;;
56319;SDS011;42226;42.382;23.748;2023-04-10T05:24:07;5.40;;;5.00;;
56319;SDS011;42226;42.382;23.748;2023-04-10T05:26:34;6.22;;;5.72;;
56319;SDS011;42226;42.382;23.748;2023-04-10T05:29:01;5.70;;;5.22;;
56319;SDS011;42226;42.382;23.748;2023-04-10T05:31:28;5.28;;;4.88;;
56319;SDS011;42226;42.382;23.748;2023-04-10T05:33:55;4.95;;;4.55;;
56319;SDS011;42226;42.382;23.748;2023-04-10T05:36:21;5.40;;;4.97;;
56319;SDS011;42226;42.382;23.748;2023-04-10T05:38:48;5.05;;;4.65;;
56319;SDS011;42226;42.382;23.748;2023-04-10T05:41:15;4.68;;;4.28;;
56319;SDS011;42226;42.382;23.748;2023-04-10T05:43:42;5.03;;;4.63;;
56319;SDS011;42226;42.382;23.748;2023-04-10T05:46:08;5.40;;;4.90;;
56319;SDS011;42226;42.382;23.748;2023-04-10T05:48:35;5.15;;;4.75;;
56319;SDS011;42226;42.382;23.748;2023-04-10T05:51:03;5.00;;;4.60;;
56319;SDS011;42226;42.382;23.748;2023-04-10T05:53:30;4.88;;;4.47;;
56319;SDS011;42226;42.382;23.748;2023-04-10T05:55:57;4.63;;;4.22;;
56319;SDS011;42226;42.382;23.748;2023-04-10T05:58:26;4.80;;;4.40;;
56319;SDS011;42226;42.382;23.748;2023-04-10T06:00:53;4.80;;;4.40;;
56319;SDS011;42226;42.382;23.748;2023-04-10T06:03:21;4.68;;;4.28;;
56319;SDS011;42226;42.382;23.748;2023-04-10T06:05:48;4.90;;;4.50;;
56319;SDS011;42226;42.382;23.748;2023-04-10T06:08:15;4.93;;;4.53;;
56319;SDS011;42226;42.382;23.748;2023-04-10T06:10:41;5.40;;;5.00;;
56319;SDS011;42226;42.382;23.748;2023-04-10T06:13:08;5.07;;;4.40;;
56319;SDS011;42226;42.382;23.748;2023-04-10T06:15:35;4.95;;;4.55;;
56319;SDS011;42226;42.382;23.748;2023-04-10T06:18:02;5.18;;;4.78;;
56319;SDS011;42226;42.382;23.748;2023-04-10T06:20:29;4.88;;;4.47;;
56319;SDS011;42226;42.382;23.748;2023-04-10T06:22:57;5.88;;;5.38;;
56319;SDS011;42226;42.382;23.748;2023-04-10T06:25:24;5.18;;;4.68;;
56319;SDS011;42226;42.382;23.748;2023-04-10T06:27:51;5.18;;;4.78;;
56319;SDS011;42226;42.382;23.748;2023-04-10T06:30:18;6.78;;;6.18;;
56319;SDS011;42226;42.382;23.748;2023-04-10T06:32:45;6.70;;;6.10;;
56319;SDS011;42226;42.382;23.748;2023-04-10T06:35:12;6.88;;;6.28;;
56319;SDS011;42226;42.382;23.748;2023-04-10T06:37:39;7.20;;;6.60;;
56319;SDS011;42226;42.382;23.748;2023-04-10T06:40:07;7.40;;;6.72;;
56319;SDS011;42226;42.382;23.748;2023-04-10T06:42:39;7.20;;;6.50;;
56319;SDS011;42226;42.382;23.748;2023-04-10T06:45:06;6.97;;;6.32;;
56319;SDS011;42226;42.382;23.748;2023-04-10T06:47:34;7.20;;;6.55;;
56319;SDS011;42226;42.382;23.748;2023-04-10T06:50:01;7.55;;;6.85;;
56319;SDS011;42226;42.382;23.748;2023-04-10T06:52:28;7.15;;;6.55;;
56319;SDS011;42226;42.382;23.748;2023-04-10T06:54:55;6.63;;;6.03;;
56319;SDS011;42226;42.382;23.748;2023-04-10T06:57:21;6.28;;;5.68;;
56319;SDS011;42226;42.382;23.748;2023-04-10T06:59:48;6.40;;;5.80;;
56319;SDS011;42226;42.382;23.748;2023-04-10T07:02:15;6.10;;;5.60;;
56319;SDS011;42226;42.382;23.748;2023-04-10T07:04:41;6.55;;;5.95;;
56319;SDS011;42226;42.382;23.748;2023-04-10T07:07:08;7.00;;;6.30;;
56319;SDS011;42226;42.382;23.748;2023-04-10T07:09:36;6.90;;;6.30;;
56319;SDS011;42226;42.382;23.748;2023-04-10T07:12:03;6.80;;;6.20;;
56319;SDS011;42226;42.382;23.748;2023-04-10T07:14:31;6.40;;;5.80;;
56319;SDS011;42226;42.382;23.748;2023-04-10T07:17:00;6.32;;;5.80;;
56319;SDS011;42226;42.382;23.748;2023-04-10T07:19:27;6.15;;;5.60;;
56319;SDS011;42226;42.382;23.748;2023-04-10T07:21:54;6.60;;;6.00;;
56319;SDS011;42226;42.382;23.748;2023-04-10T07:24:21;6.63;;;5.65;;
56319;SDS011;42226;42.382;23.748;2023-04-10T07:26:48;6.15;;;5.35;;
56319;SDS011;42226;42.382;23.748;2023-04-10T07:29:16;6.22;;;5.68;;
56319;SDS011;42226;42.382;23.748;2023-04-10T07:31:43;6.22;;;5.32;;
56319;SDS011;42226;42.382;23.748;2023-04-10T07:34:10;6.20;;;5.60;;
56319;SDS011;42226;42.382;23.748;2023-04-10T07:36:38;5.75;;;5.22;;
56319;SDS011;42226;42.382;23.748;2023-04-10T07:39:04;4.65;;;4.25;;
56319;SDS011;42226;42.382;23.748;2023-04-10T07:41:31;5.07;;;4.68;;
56319;SDS011;42226;42.382;23.748;2023-04-10T07:43:57;4.68;;;4.28;;
56319;SDS011;42226;42.382;23.748;2023-04-10T07:46:25;4.70;;;4.30;;
56319;SDS011;42226;42.382;23.748;2023-04-10T07:48:51;4.82;;;4.30;;
56319;SDS011;42226;42.382;23.748;2023-04-10T07:51:19;4.78;;;4.25;;
56319;SDS011;42226;42.382;23.748;2023-04-10T07:53:46;4.78;;;4.38;;
56319;SDS011;42226;42.382;23.748;2023-04-10T07:56:16;4.47;;;4.07;;
56319;SDS011;42226;42.382;23.748;2023-04-10T07:58:44;5.30;;;4.80;;
56319;SDS011;42226;42.382;23.748;2023-04-10T08:01:12;4.97;;;4.57;;
56319;SDS011;42226;42.382;23.748;2023-04-10T08:03:39;4.85;;;4.45;;
56319;SDS011;42226;42.382;23.748;2023-04-10T08:06:08;5.32;;;4.82;;
56319;SDS011;42226;42.382;23.748;2023-04-10T08:08:36;4.72;;;4.32;;
56319;SDS011;42226;42.382;23.748;2023-04-10T08:13:53;4.55;;;4.15;;
56319;SDS011;42226;42.382;23.748;2023-04-10T08:16:25;5.95;;;5.38;;
56319;SDS011;42226;42.382;23.748;2023-04-10T08:18:56;5.63;;;5.13;;
56319;SDS011;42226;42.382;23.748;2023-04-10T08:21:24;6.10;;;5.60;;
56319;SDS011;42226;42.382;23.748;2023-04-10T08:23:52;5.68;;;5.18;;
56319;SDS011;42226;42.382;23.748;2023-04-10T08:26:23;5.80;;;5.30;;
56319;SDS011;42226;42.382;23.748;2023-04-10T08:28:51;5.78;;;5.28;;
56319;SDS011;42226;42.382;23.748;2023-04-10T08:31:20;4.60;;;4.20;;
56319;SDS011;42226;42.382;23.748;2023-04-10T08:33:48;4.80;;;4.40;;
56319;SDS011;42226;42.382;23.748;2023-04-10T08:36:14;4.75;;;4.35;;
56319;SDS011;42226;42.382;23.748;2023-04-10T08:38:41;4.63;;;4.22;;
56319;SDS011;42226;42.382;23.748;2023-04-10T08:41:12;5.03;;;4.53;;
56319;SDS011;42226;42.382;23.748;2023-04-10T08:43:40;4.75;;;4.35;;
56319;SDS011;42226;42.382;23.748;2023-04-10T08:46:08;5.07;;;4.60;;
56319;SDS011;42226;42.382;23.748;2023-04-10T08:48:57;5.07;;;4.60;;
56319;SDS011;42226;42.382;23.748;2023-04-10T08:51:38;5.38;;;4.88;;
56319;SDS011;42226;42.382;23.748;2023-04-10T08:54:18;5.55;;;4.97;;
56319;SDS011;42226;42.382;23.748;2023-04-10T08:56:57;5.45;;;4.97;;
56319;SDS011;42226;42.382;23.748;2023-04-10T08:59:29;5.50;;;5.03;;
56319;SDS011;42226;42.382;23.748;2023-04-10T09:01:56;5.75;;;5.25;;
56319;SDS011;42226;42.382;23.748;2023-04-10T09:04:25;5.53;;;5.03;;
56319;SDS011;42226;42.382;23.748;2023-04-10T09:06:52;5.53;;;4.85;;
56319;SDS011;42226;42.382;23.748;2023-04-10T09:09:18;6.15;;;5.63;;
56319;SDS011;42226;42.382;23.748;2023-04-10T09:16:49;7.05;;;6.20;;
56319;SDS011;42226;42.382;23.748;2023-04-10T09:19:29;7.60;;;5.70;;
56319;SDS011;42226;42.382;23.748;2023-04-10T09:21:56;6.35;;;5.70;;
56319;SDS011;42226;42.382;23.748;2023-04-10T09:24:24;6.30;;;5.70;;
56319;SDS011;42226;42.382;23.748;2023-04-10T09:26:51;6.20;;;5.70;;
56319;SDS011;42226;42.382;23.748;2023-04-10T09:29:18;6.28;;;5.75;;
56319;SDS011;42226;42.382;23.748;2023-04-10T09:31:44;5.90;;;5.20;;
56319;SDS011;42226;42.382;23.748;2023-04-10T09:34:21;6.25;;;5.65;;
56319;SDS011;42226;42.382;23.748;2023-04-10T09:36:55;6.45;;;5.80;;
56319;SDS011;42226;42.382;23.748;2023-04-10T09:39:36;6.20;;;5.60;;
56319;SDS011;42226;42.382;23.748;2023-04-10T09:42:08;6.35;;;5.75;;
56319;SDS011;42226;42.382;23.748;2023-04-10T09:44:39;6.50;;;5.90;;
56319;SDS011;42226;42.382;23.748;2023-04-10T09:49:47;6.35;;;5.82;;
56319;SDS011;42226;42.382;23.748;2023-04-10T09:52:26;6.35;;;5.75;;
56319;SDS011;42226;42.382;23.748;2023-04-10T09:54:55;5.80;;;5.30;;
56319;SDS011;42226;42.382;23.748;2023-04-10T09:57:28;6.20;;;5.70;;
56319;SDS011;42226;42.382;23.748;2023-04-10T09:59:57;7.35;;;6.45;;
56319;SDS011;42226;42.382;23.748;2023-04-10T10:02:30;6.10;;;5.60;;
56319;SDS011;42226;42.382;23.748;2023-04-10T10:07:32;6.55;;;6.03;;
56319;SDS011;42226;42.382;23.748;2023-04-10T10:10:00;6.57;;;5.97;;
56319;SDS011;42226;42.382;23.748;2023-04-10T10:12:33;6.55;;;5.95;;
56319;SDS011;42226;42.382;23.748;2023-04-10T10:15:13;6.68;;;6.07;;
56319;SDS011;42226;42.382;23.748;2023-04-10T10:17:52;7.15;;;6.13;;
56319;SDS011;42226;42.382;23.748;2023-04-10T10:20:28;7.40;;;6.70;;
56319;SDS011;42226;42.382;23.748;2023-04-10T10:23:00;6.95;;;6.22;;
56319;SDS011;42226;42.382;23.748;2023-04-10T10:25:28;6.57;;;5.97;;
56319;SDS011;42226;42.382;23.748;2023-04-10T10:27:58;6.38;;;5.78;;
56319;SDS011;42226;42.382;23.748;2023-04-10T10:30:27;6.20;;;5.65;;
56319;SDS011;42226;42.382;23.748;2023-04-10T10:33:01;6.90;;;6.30;;
56319;SDS011;42226;42.382;23.748;2023-04-10T10:35:35;6.57;;;5.95;;
56319;SDS011;42226;42.382;23.748;2023-04-10T10:38:02;6.68;;;6.03;;
56319;SDS011;42226;42.382;23.748;2023-04-10T10:40:31;6.90;;;6.20;;
56319;SDS011;42226;42.382;23.748;2023-04-10T10:43:15;7.55;;;6.85;;
56319;SDS011;42226;42.382;23.748;2023-04-10T10:46:11;7.82;;;7.03;;
56319;SDS011;42226;42.382;23.748;2023-04-10T10:48:56;6.97;;;6.28;;
56319;SDS011;42226;42.382;23.748;2023-04-10T10:51:43;6.80;;;6.13;;
56319;SDS011;42226;42.382;23.748;2023-04-10T10:54:31;7.07;;;6.40;;
56319;SDS011;42226;42.382;23.748;2023-04-10T10:57:00;8.02;;;6.88;;
56319;SDS011;42226;42.382;23.748;2023-04-10T11:04:42;6.70;;;6.10;;
56319;SDS011;42226;42.382;23.748;2023-04-10T11:07:13;6.95;;;6.32;;
56319;SDS011;42226;42.382;23.748;2023-04-10T11:09:44;6.55;;;5.95;;
56319;SDS011;42226;42.382;23.748;2023-04-10T11:12:17;6.17;;;5.57;;
56319;SDS011;42226;42.382;23.748;2023-04-10T11:15:00;6.43;;;5.87;;
56319;SDS011;42226;42.382;23.748;2023-04-10T11:17:46;7.53;;;6.28;;
56319;SDS011;42226;42.382;23.748;2023-04-10T11:20:18;6.90;;;6.30;;
56319;SDS011;42226;42.382;23.748;2023-04-10T11:23:10;6.93;;;6.32;;
56319;SDS011;42226;42.382;23.748;2023-04-10T11:25:49;6.40;;;5.80;;
56319;SDS011;42226;42.382;23.748;2023-04-10T11:36:21;6.65;;;6.05;;
56319;SDS011;42226;42.382;23.748;2023-04-10T11:41:30;6.80;;;6.20;;
56319;SDS011;42226;42.382;23.748;2023-04-10T11:44:06;6.63;;;6.03;;
56319;SDS011;42226;42.382;23.748;2023-04-10T11:46:35;6.75;;;6.13;;
56319;SDS011;42226;42.382;23.748;2023-04-10T11:49:07;7.22;;;6.53;;
56319;SDS011;42226;42.382;23.748;2023-04-10T11:51:35;6.82;;;6.07;;
56319;SDS011;42226;42.382;23.748;2023-04-10T11:54:10;6.35;;;5.75;;
56319;SDS011;42226;42.382;23.748;2023-04-10T11:56:39;7.17;;;5.97;;
56319;SDS011;42226;42.382;23.748;2023-04-10T11:59:08;6.55;;;5.95;;
56319;SDS011;42226;42.382;23.748;2023-04-10T12:01:37;6.07;;;5.47;;
56319;SDS011;42226;42.382;23.748;2023-04-10T12:04:14;6.20;;;5.60;;
56319;SDS011;42226;42.382;23.748;2023-04-10T12:06:45;6.10;;;5.60;;
56319;SDS011;42226;42.382;23.748;2023-04-10T12:09:14;5.10;;;4.70;;
56319;SDS011;42226;42.382;23.748;2023-04-10T12:12:03;5.68;;;5.15;;
56319;SDS011;42226;42.382;23.748;2023-04-10T12:14:32;6.22;;;5.63;;
56319;SDS011;42226;42.382;23.748;2023-04-10T12:17:02;6.10;;;5.50;;
56319;SDS011;42226;42.382;23.748;2023-04-10T12:19:30;5.75;;;5.25;;
56319;SDS011;42226;42.382;23.748;2023-04-10T12:21:59;6.20;;;5.70;;
56319;SDS011;42226;42.382;23.748;2023-04-10T12:24:42;7.63;;;6.47;;
56319;SDS011;42226;42.382;23.748;2023-04-10T12:27:22;6.30;;;5.70;;
56319;SDS011;42226;42.382;23.748;2023-04-10T12:29:53;6.03;;;5.43;;
56319;SDS011;42226;42.382;23.748;2023-04-10T12:32:23;5.78;;;5.28;;
56319;SDS011;42226;42.382;23.748;2023-04-10T12:34:52;6.53;;;5.93;;
56319;SDS011;42226;42.382;23.748;2023-04-10T12:37:22;6.63;;;6.00;;
56319;SDS011;42226;42.382;23.748;2023-04-10T12:39:50;7.00;;;6.22;;
56319;SDS011;42226;42.382;23.748;2023-04-10T12:42:20;6.53;;;5.93;;
56319;SDS011;42226;42.382;23.748;2023-04-10T12:44:55;6.72;;;6.13;;
56319;SDS011;42226;42.382;23.748;2023-04-10T12:47:26;6.13;;;5.53;;
56319;SDS011;42226;42.382;23.748;2023-04-10T12:50:06;5.78;;;5.20;;
56319;SDS011;42226;42.382;23.748;2023-04-10T12:52:35;5.57;;;5.10;;
56319;SDS011;42226;42.382;23.748;2023-04-10T12:55:08;6.40;;;5.80;;
56319;SDS011;42226;42.382;23.748;2023-04-10T12:57:43;5.70;;;5.13;;
56319;SDS011;42226;42.382;23.748;2023-04-10T13:00:13;6.20;;;5.60;;
56319;SDS011;42226;42.382;23.748;2023-04-10T13:02:42;5.90;;;5.25;;
56319;SDS011;42226;42.382;23.748;2023-04-10T13:05:10;5.90;;;5.40;;
56319;SDS011;42226;42.382;23.748;2023-04-10T13:07:37;6.03;;;5.43;;
56319;SDS011;42226;42.382;23.748;2023-04-10T13:10:04;6.60;;;5.90;;
56319;SDS011;42226;42.382;23.748;2023-04-10T13:12:31;7.75;;;5.35;;
56319;SDS011;42226;42.382;23.748;2023-04-10T13:15:00;6.03;;;5.43;;
56319;SDS011;42226;42.382;23.748;2023-04-10T13:17:27;6.28;;;5.68;;
56319;SDS011;42226;42.382;23.748;2023-04-10T13:19:53;6.25;;;5.70;;
56319;SDS011;42226;42.382;23.748;2023-04-10T13:22:20;5.97;;;5.45;;
56319;SDS011;42226;42.382;23.748;2023-04-10T13:24:46;6.55;;;5.95;;
56319;SDS011;42226;42.382;23.748;2023-04-10T13:27:13;5.82;;;5.32;;
56319;SDS011;42226;42.382;23.748;2023-04-10T13:29:40;6.40;;;5.80;;
56319;SDS011;42226;42.382;23.748;2023-04-10T13:32:07;6.32;;;5.72;;
56319;SDS011;42226;42.382;23.748;2023-04-10T13:34:34;5.88;;;5.38;;
56319;SDS011;42226;42.382;23.748;2023-04-10T13:37:01;6.10;;;5.55;;
56319;SDS011;42226;42.382;23.748;2023-04-10T13:39:28;5.90;;;5.30;;
56319;SDS011;42226;42.382;23.748;2023-04-10T13:41:56;5.88;;;5.38;;
56319;SDS011;42226;42.382;23.748;2023-04-10T13:44:23;6.18;;;5.25;;
56319;SDS011;42226;42.382;23.748;2023-04-10T13:46:50;6.18;;;5.30;;
56319;SDS011;42226;42.382;23.748;2023-04-10T13:49:17;5.43;;;4.93;;
56319;SDS011;42226;42.382;23.748;2023-04-10T13:51:44;5.80;;;5.30;;
56319;SDS011;42226;42.382;23.748;2023-04-10T13:54:10;6.13;;;5.53;;
56319;SDS011;42226;42.382;23.748;2023-04-10T13:56:37;5.70;;;5.20;;
56319;SDS011;42226;42.382;23.748;2023-04-10T13:59:05;6.10;;;5.50;;
56319;SDS011;42226;42.382;23.748;2023-04-10T14:01:32;6.57;;;5.97;;
56319;SDS011;42226;42.382;23.748;2023-04-10T14:03:59;6.90;;;6.30;;
56319;SDS011;42226;42.382;23.748;2023-04-10T14:06:25;7.47;;;6.80;;
56319;SDS011;42226;42.382;23.748;2023-04-10T14:08:52;7.53;;;6.93;;
56319;SDS011;42226;42.382;23.748;2023-04-10T14:11:19;8.55;;;7.65;;
56319;SDS011;42226;42.382;23.748;2023-04-10T14:13:45;7.60;;;6.90;;
56319;SDS011;42226;42.382;23.748;2023-04-10T14:16:12;8.30;;;7.57;;
56319;SDS011;42226;42.382;23.748;2023-04-10T14:18:39;7.80;;;7.10;;
56319;SDS011;42226;42.382;23.748;2023-04-10T14:21:06;7.07;;;6.47;;
56319;SDS011;42226;42.382;23.748;2023-04-10T14:23:34;7.25;;;6.55;;
56319;SDS011;42226;42.382;23.748;2023-04-10T14:26:01;6.97;;;6.38;;
56319;SDS011;42226;42.382;23.748;2023-04-10T14:28:29;5.93;;;5.43;;
56319;SDS011;42226;42.382;23.748;2023-04-10T14:30:57;6.03;;;5.53;;
56319;SDS011;42226;42.382;23.748;2023-04-10T14:33:24;5.32;;;4.93;;
56319;SDS011;42226;42.382;23.748;2023-04-10T14:35:51;5.28;;;4.82;;
56319;SDS011;42226;42.382;23.748;2023-04-10T14:38:18;5.68;;;5.18;;
56319;SDS011;42226;42.382;23.748;2023-04-10T14:40:47;6.38;;;5.80;;
56319;SDS011;42226;42.382;23.748;2023-04-10T14:43:14;6.60;;;6.00;;
56319;SDS011;42226;42.382;23.748;2023-04-10T14:45:44;7.28;;;6.60;;
56319;SDS011;42226;42.382;23.748;2023-04-10T14:48:11;6.60;;;6.00;;
56319;SDS011;42226;42.382;23.748;2023-04-10T14:50:38;7.07;;;6.47;;
56319;SDS011;42226;42.382;23.748;2023-04-10T14:53:05;6.88;;;6.28;;
56319;SDS011;42226;42.382;23.748;2023-04-10T14:55:34;7.07;;;6.38;;
56319;SDS011;42226;42.382;23.748;2023-04-10T14:58:02;7.47;;;6.68;;
56319;SDS011;42226;42.382;23.748;2023-04-10T15:00:31;7.00;;;6.40;;
56319;SDS011;42226;42.382;23.748;2023-04-10T15:02:59;7.70;;;6.90;;
56319;SDS011;42226;42.382;23.748;2023-04-10T15:05:27;7.07;;;6.45;;
56319;SDS011;42226;42.382;23.748;2023-04-10T15:07:55;6.72;;;6.10;;
56319;SDS011;42226;42.382;23.748;2023-04-10T15:10:24;7.40;;;6.70;;
56319;SDS011;42226;42.382;23.748;2023-04-10T15:12:53;6.88;;;6.28;;
56319;SDS011;42226;42.382;23.748;2023-04-10T15:15:19;7.18;;;6.47;;
56319;SDS011;42226;42.382;23.748;2023-04-10T15:17:47;6.38;;;5.78;;
56319;SDS011;42226;42.382;23.748;2023-04-10T15:20:14;7.13;;;5.80;;
56319;SDS011;42226;42.382;23.748;2023-04-10T15:22:41;6.30;;;5.63;;
56319;SDS011;42226;42.382;23.748;2023-04-10T15:25:09;6.63;;;6.03;;
56319;SDS011;42226;42.382;23.748;2023-04-10T15:27:40;6.93;;;6.28;;
56319;SDS011;42226;42.382;23.748;2023-04-10T15:30:07;6.10;;;5.50;;